Time;durP1;ratioP1;P1;durP2;ratioP2;P2;SDS_P1;SDS_P2;PMS_P1;PMS_P2;Temp;Humidity;BMP_temperature;BMP_pressure;BME280_temperature;BME280_humidity;BME280_pressure;Samples;Min_cycle;Max_cycle;Signal;HPM_P1;HPM_P2
2022/04/09 00:02:26;;;;;;;0.57;0.30;;;10.80;99.90;;;;;;5039381;28;20208;-92
2022/04/09 00:05:02;;;;;;;0.73;0.40;;;10.60;99.90;;;;;;5040411;28;20277;-90
2022/04/09 00:07:33;;;;;;;0.90;0.50;;;10.60;99.90;;;;;;5038006;28;20217;-92
2022/04/09 00:10:11;;;;;;;15.53;8.63;;;10.60;99.90;;;;;;5041515;28;20232;-92
2022/04/09 00:12:45;;;;;;;3.40;0.70;;;10.50;99.90;;;;;;5051438;28;20205;-92
2022/04/09 00:15:18;;;;;;;2.73;0.80;;;10.40;99.90;;;;;;5049468;28;20591;-92
2022/04/09 00:18:04;;;;;;;5.03;0.70;;;10.40;99.90;;;;;;5040542;28;20813;-91
2022/04/09 00:23:21;;;;;;;2.30;0.80;;;10.20;99.90;;;;;;5045173;28;20216;-92
2022/04/09 00:26:00;;;;;;;1.13;0.53;;;10.20;99.90;;;;;;5048265;28;20327;-90
2022/04/09 00:28:35;;;;;;;1.67;0.70;;;10.20;99.90;;;;;;5046252;28;20220;-92
2022/04/09 00:31:27;;;;;;;2.67;0.60;;;10.10;99.90;;;;;;5052238;28;20193;-91
2022/04/09 00:34:01;;;;;;;2.90;0.60;;;10.00;99.90;;;;;;5043640;28;20283;-91
2022/04/09 00:36:33;;;;;;;1.80;0.73;;;9.90;99.90;;;;;;5041958;28;20237;-90
2022/04/09 00:39:05;;;;;;;4.30;1.10;;;9.90;99.90;;;;;;5075778;28;20200;-91
2022/04/09 00:41:41;;;;;;;3.00;0.80;;;9.80;99.90;;;;;;5075407;28;20212;-91
2022/04/09 00:44:18;;;;;;;10.43;1.50;;;9.60;99.90;;;;;;5057694;28;20212;-91
2022/04/09 00:46:50;;;;;;;5.13;1.33;;;9.40;99.90;;;;;;5047015;28;20204;-91
2022/04/09 00:49:23;;;;;;;6.23;1.20;;;8.80;99.90;;;;;;5046324;28;20209;-92
2022/04/09 00:54:44;;;;;;;6.33;1.10;;;8.10;99.90;;;;;;5022387;28;20616;-91
2022/04/09 00:57:27;;;;;;;6.03;1.70;;;7.90;99.90;;;;;;5025957;28;20267;-92
2022/04/09 01:00:06;;;;;;;3.50;0.87;;;7.80;99.90;;;;;;5020642;28;20592;-90
2022/04/09 01:02:39;;;;;;;1.10;0.37;;;7.50;99.90;;;;;;5020393;28;20239;-91
2022/04/09 01:05:11;;;;;;;2.93;0.70;;;7.40;99.90;;;;;;5021253;28;20218;-91
2022/04/09 01:07:45;;;;;;;1.93;0.70;;;7.50;99.90;;;;;;5027108;28;20240;-90
2022/04/09 01:10:17;;;;;;;2.27;0.40;;;7.50;99.90;;;;;;5038933;28;20197;-92
2022/04/09 01:12:50;;;;;;;2.93;0.80;;;7.60;99.90;;;;;;5039709;28;20197;-91
2022/04/09 01:15:31;;;;;;;2.73;0.60;;;7.70;99.90;;;;;;5038599;28;20284;-90
2022/04/09 01:18:05;;;;;;;3.20;0.83;;;7.80;99.90;;;;;;5037675;28;20228;-92
2022/04/09 01:20:40;;;;;;;3.37;0.83;;;7.90;99.90;;;;;;5036448;28;20205;-91
2022/04/09 01:23:16;;;;;;;2.40;0.60;;;7.90;99.90;;;;;;5025442;28;20674;-91
2022/04/09 01:25:49;;;;;;;2.93;0.50;;;8.10;99.90;;;;;;5029515;28;20732;-91
2022/04/09 01:28:20;;;;;;;3.83;0.70;;;8.10;99.90;;;;;;5022713;28;20202;-92
2022/04/09 01:30:55;;;;;;;1.37;0.60;;;8.20;99.90;;;;;;5027294;28;20219;-92
2022/04/09 01:33:27;;;;;;;3.33;0.80;;;8.20;99.90;;;;;;5019735;28;20242;-92
2022/04/09 01:35:58;;;;;;;1.80;0.80;;;8.30;99.90;;;;;;5024178;28;20225;-91
2022/04/09 01:38:35;;;;;;;2.80;0.67;;;8.30;99.90;;;;;;5028411;28;20240;-91
2022/04/09 01:41:07;;;;;;;1.40;0.60;;;8.30;99.90;;;;;;5027624;28;20214;-91
2022/04/09 01:43:41;;;;;;;4.50;0.97;;;8.30;99.90;;;;;;5029762;28;20273;-91
2022/04/09 01:46:14;;;;;;;1.40;0.60;;;8.20;99.90;;;;;;5025964;28;20205;-91
2022/04/09 01:48:49;;;;;;;1.83;0.60;;;8.20;99.90;;;;;;5026776;28;20202;-92
2022/04/09 01:51:21;;;;;;;1.40;0.50;;;8.20;99.90;;;;;;5028700;28;20206;-92
2022/04/09 01:53:59;;;;;;;0.63;0.50;;;8.10;99.90;;;;;;5038060;28;20202;-91
2022/04/09 01:56:38;;;;;;;2.40;0.90;;;8.10;99.90;;;;;;5026010;28;20212;-92
2022/04/09 01:59:11;;;;;;;0.87;0.60;;;8.20;99.90;;;;;;5050369;28;20237;-91
2022/04/09 02:01:50;;;;;;;6.77;0.80;;;8.20;99.90;;;;;;5053017;28;20213;-90
2022/04/09 02:04:34;;;;;;;2.57;1.20;;;8.20;99.90;;;;;;5298590;22;20317;-92
2022/04/09 02:07:08;;;;;;;3.10;1.10;;;8.20;99.90;;;;;;5055511;28;20204;-91
2022/04/09 02:12:27;;;;;;;6.43;1.00;;;8.40;99.90;;;;;;5292389;22;20361;-91
2022/04/09 02:15:00;;;;;;;3.60;1.07;;;8.40;99.90;;;;;;5035995;28;20225;-91
2022/04/09 02:17:33;;;;;;;2.90;0.60;;;8.30;99.90;;;;;;5033641;28;20252;-91
2022/04/09 02:20:10;;;;;;;2.50;0.80;;;8.40;99.90;;;;;;5033457;28;20213;-91
2022/04/09 02:25:53;;;;;;;3.87;1.00;;;8.20;99.90;;;;;;4255923;27;25753917;-91
2022/04/09 02:28:28;;;;;;;3.40;0.97;;;8.20;99.90;;;;;;5154930;27;20190;-91
2022/04/09 02:30:59;;;;;;;3.03;1.17;;;8.10;99.90;;;;;;5152038;27;20205;-90
2022/04/09 02:33:32;;;;;;;2.30;0.80;;;8.00;99.90;;;;;;5149660;28;20210;-92
2022/04/09 02:36:05;;;;;;;1.17;0.60;;;8.00;99.90;;;;;;5132553;28;20261;-92
2022/04/09 02:38:52;;;;;;;1.83;1.10;;;8.00;99.90;;;;;;5133417;28;20236;-92
2022/04/09 02:41:28;;;;;;;3.77;1.10;;;7.90;99.90;;;;;;5151371;28;20285;-93
2022/04/09 02:44:00;;;;;;;2.60;1.00;;;7.70;99.90;;;;;;5131264;28;20241;-92
2022/04/09 02:46:34;;;;;;;3.60;0.83;;;7.80;99.90;;;;;;5113754;28;20206;-92
2022/04/09 02:49:07;;;;;;;1.87;0.60;;;7.70;99.90;;;;;;5109150;28;20685;-91
2022/04/09 02:51:43;;;;;;;2.27;0.80;;;7.70;99.90;;;;;;5126387;28;20214;-92
2022/04/09 02:54:18;;;;;;;3.50;0.83;;;7.80;99.90;;;;;;5123369;28;20205;-92
2022/04/09 02:57:00;;;;;;;3.87;0.93;;;7.80;99.90;;;;;;5123904;28;20237;-91
2022/04/09 03:02:46;;;;;;;3.60;0.90;;;7.80;99.90;;;;;;5121653;28;20213;-91
2022/04/09 03:05:21;;;;;;;1.83;0.90;;;7.80;99.90;;;;;;5118031;28;20257;-90
2022/04/09 03:08:00;;;;;;;4.07;0.97;;;7.80;99.90;;;;;;5123504;28;20228;-90
2022/04/09 03:16:07;;;;;;;2.50;0.80;;;7.70;99.90;;;;;;5681349;23;20232;-92
2022/04/09 03:18:39;;;;;;;1.40;1.07;;;7.70;99.90;;;;;;5047604;28;20322;-91
2022/04/09 03:21:14;;;;;;;3.53;0.90;;;7.70;99.90;;;;;;5029838;28;20239;-91
2022/04/09 03:23:45;;;;;;;2.33;1.00;;;7.60;99.90;;;;;;5044967;28;20220;-91
2022/04/09 03:26:24;;;;;;;2.37;0.83;;;7.60;99.90;;;;;;5053352;28;20223;-91
2022/04/09 03:28:56;;;;;;;2.70;0.80;;;7.50;99.90;;;;;;5053014;28;20205;-91
2022/04/09 03:31:32;;;;;;;6.67;1.10;;;7.40;99.90;;;;;;5033236;28;20200;-91
2022/04/09 03:34:06;;;;;;;2.30;1.17;;;7.40;99.90;;;;;;5026320;28;20220;-92
2022/04/09 03:36:43;;;;;;;3.50;1.27;;;7.40;99.90;;;;;;5017955;28;20200;-92
2022/04/09 03:39:24;;;;;;;1.80;1.20;;;7.40;99.90;;;;;;5032897;28;20232;-91
2022/04/09 03:42:00;;;;;;;4.47;1.27;;;7.40;99.90;;;;;;5033448;28;20224;-92
2022/04/09 03:44:49;;;;;;;2.13;1.07;;;7.30;99.90;;;;;;5031828;28;20572;-92
2022/04/09 03:47:30;;;;;;;2.03;0.77;;;7.30;99.90;;;;;;5031009;28;20232;-91
2022/04/09 03:50:06;;;;;;;4.03;1.20;;;7.40;99.90;;;;;;5029960;28;20216;-92
2022/04/09 03:52:38;;;;;;;2.17;1.57;;;7.40;99.90;;;;;;5031766;28;20556;-93
2022/04/09 03:55:10;;;;;;;1.93;1.00;;;7.40;99.90;;;;;;5028665;28;20212;-92
2022/04/09 03:57:44;;;;;;;2.03;1.00;;;7.40;99.90;;;;;;5009063;28;20233;-92
2022/04/09 04:00:18;;;;;;;2.83;1.20;;;7.40;99.90;;;;;;5016092;28;20617;-91
2022/04/09 04:02:54;;;;;;;4.40;0.83;;;7.40;99.90;;;;;;5012607;28;20222;-92
2022/04/09 04:05:28;;;;;;;4.53;1.50;;;7.40;99.90;;;;;;5013166;28;20272;-92
2022/04/09 04:08:00;;;;;;;3.73;1.70;;;7.40;99.90;;;;;;5023392;28;20240;-90
2022/04/09 04:10:32;;;;;;;3.03;1.57;;;7.40;99.90;;;;;;5025696;28;20240;-91
2022/04/09 04:13:06;;;;;;;2.47;1.90;;;7.40;99.90;;;;;;5020652;28;20301;-92
2022/04/09 04:15:42;;;;;;;3.00;1.63;;;7.40;99.90;;;;;;5021033;28;20220;-91
2022/04/09 04:18:16;;;;;;;2.93;1.50;;;7.50;99.90;;;;;;5002651;28;20213;-91
2022/04/09 04:20:49;;;;;;;2.10;1.27;;;7.50;99.90;;;;;;5028083;28;20216;-92
2022/04/09 04:23:25;;;;;;;2.33;1.00;;;7.50;99.90;;;;;;5031913;28;20208;-92
2022/04/09 04:25:58;;;;;;;3.23;0.87;;;7.40;99.90;;;;;;5031585;28;20680;-91
2022/04/09 04:28:31;;;;;;;1.70;0.70;;;7.40;99.90;;;;;;5028664;28;20211;-91
2022/04/09 04:31:06;;;;;;;2.20;0.90;;;7.30;99.90;;;;;;5032599;28;20208;-91
2022/04/09 04:36:56;;;;;;;2.27;0.87;;;7.10;99.90;;;;;;5028064;28;20212;-91
2022/04/09 04:39:29;;;;;;;2.53;0.80;;;7.10;99.90;;;;;;5029058;28;20228;-91
2022/04/09 04:44:48;;;;;;;2.13;0.87;;;6.90;99.90;;;;;;5032234;28;20258;-92
2022/04/09 04:47:19;;;;;;;1.03;0.50;;;7.00;99.90;;;;;;5022970;28;20288;-91
2022/04/09 04:49:53;;;;;;;1.70;0.80;;;7.00;99.90;;;;;;5020233;28;20274;-93
2022/04/09 04:52:24;;;;;;;2.37;0.90;;;6.90;99.90;;;;;;5019756;28;20229;-91
2022/04/09 04:54:56;;;;;;;3.63;1.10;;;6.90;99.90;;;;;;5020045;28;20662;-92
2022/04/09 04:57:27;;;;;;;2.20;0.97;;;6.80;99.90;;;;;;5018236;28;20206;-92
2022/04/09 04:59:59;;;;;;;2.63;1.10;;;6.90;99.90;;;;;;5019376;28;20214;-92
2022/04/09 05:02:31;;;;;;;1.37;0.80;;;6.90;99.90;;;;;;5019190;28;20632;-92
2022/04/09 05:05:04;;;;;;;2.17;1.00;;;6.90;99.90;;;;;;5019241;28;20243;-92
2022/04/09 05:07:43;;;;;;;3.10;1.17;;;6.90;99.90;;;;;;5018850;28;20254;-92
2022/04/09 05:10:17;;;;;;;3.10;1.40;;;6.90;99.90;;;;;;5019980;28;20212;-91
2022/04/09 05:12:49;;;;;;;2.00;0.97;;;6.80;99.90;;;;;;5019179;28;20232;-92
2022/04/09 05:18:21;;;;;;;2.07;1.23;;;7.00;99.90;;;;;;5027338;28;20217;-91
2022/04/09 05:20:56;;;;;;;1.33;0.90;;;7.00;99.90;;;;;;5019118;28;20213;-90
2022/04/09 05:23:29;;;;;;;4.03;1.30;;;7.00;99.90;;;;;;5019652;28;20205;-90
2022/04/09 05:26:01;;;;;;;8.13;1.20;;;6.90;99.90;;;;;;5006146;28;20226;-90
2022/04/09 05:28:33;;;;;;;4.10;1.50;;;6.90;99.90;;;;;;5019070;28;20224;-91
2022/04/09 05:31:06;;;;;;;2.10;1.17;;;6.90;99.90;;;;;;5020289;28;20298;-91
2022/04/09 05:33:39;;;;;;;2.10;1.10;;;6.90;99.90;;;;;;5018671;28;20216;-92
2022/04/09 05:36:12;;;;;;;4.60;1.30;;;6.90;99.90;;;;;;5007167;28;20202;-91
2022/04/09 05:38:44;;;;;;;2.53;1.07;;;6.80;99.90;;;;;;5028737;28;20213;-92
2022/04/09 05:41:16;;;;;;;3.80;1.20;;;6.90;99.90;;;;;;5029957;28;20272;-93
2022/04/09 05:43:48;;;;;;;2.90;1.17;;;7.00;99.90;;;;;;5004789;28;20210;-92
2022/04/09 05:46:22;;;;;;;1.97;0.93;;;7.00;99.90;;;;;;5019817;28;20312;-91
2022/04/09 05:48:54;;;;;;;1.53;1.03;;;7.00;99.90;;;;;;5024310;28;20239;-91
2022/04/09 05:51:27;;;;;;;3.20;1.10;;;7.00;99.90;;;;;;5024378;28;20207;-92
2022/04/09 05:53:59;;;;;;;1.87;0.73;;;7.00;99.90;;;;;;5025698;28;20216;-91
2022/04/09 05:56:30;;;;;;;3.87;1.07;;;6.90;99.90;;;;;;5027012;28;20222;-92
2022/04/09 05:59:02;;;;;;;2.53;0.80;;;6.80;99.90;;;;;;5020968;28;20580;-92
2022/04/09 06:01:49;;;;;;;1.47;0.67;;;6.70;99.90;;;;;;5021841;28;20201;-92
2022/04/09 06:04:20;;;;;;;3.40;1.00;;;6.70;99.90;;;;;;5021602;28;20206;-92
2022/04/09 06:06:55;;;;;;;6.30;1.13;;;6.70;99.90;;;;;;5027363;28;20241;-92
2022/04/09 06:09:26;;;;;;;4.17;1.20;;;6.70;99.90;;;;;;5034422;28;20224;-93
2022/04/09 06:11:58;;;;;;;1.70;1.03;;;6.70;99.90;;;;;;5029670;28;20214;-92
2022/04/09 06:14:29;;;;;;;4.20;0.90;;;6.70;99.90;;;;;;5021949;28;20244;-92
2022/04/09 06:17:00;;;;;;;4.43;1.03;;;6.70;99.90;;;;;;5033023;28;20205;-92
2022/04/09 06:19:32;;;;;;;5.47;1.20;;;6.70;99.90;;;;;;5036630;28;20227;-92
2022/04/09 06:22:06;;;;;;;3.73;1.10;;;6.60;99.90;;;;;;5020212;28;20190;-90
2022/04/09 06:24:38;;;;;;;4.57;1.30;;;6.50;99.90;;;;;;5036817;28;20199;-92
2022/04/09 06:27:09;;;;;;;2.03;0.90;;;6.50;99.90;;;;;;5036498;28;20228;-91
2022/04/09 06:29:41;;;;;;;4.33;1.10;;;6.40;99.90;;;;;;5037284;28;20189;-92
2022/04/09 06:32:12;;;;;;;7.57;1.40;;;6.50;99.90;;;;;;5037123;28;20186;-91
2022/04/09 06:34:44;;;;;;;6.13;1.07;;;6.50;99.90;;;;;;5020421;28;20186;-91
2022/04/09 06:37:17;;;;;;;3.87;1.00;;;6.50;99.90;;;;;;5035893;28;20201;-92
2022/04/09 06:39:48;;;;;;;3.37;1.00;;;6.50;99.90;;;;;;5035659;28;20204;-91
2022/04/09 06:42:20;;;;;;;1.77;0.80;;;6.40;99.90;;;;;;5035140;28;20210;-91
2022/04/09 06:44:52;;;;;;;2.93;1.33;;;6.40;99.90;;;;;;5033467;28;20216;-90
2022/04/09 06:47:24;;;;;;;3.50;1.20;;;6.30;99.90;;;;;;5032445;28;20256;-91
2022/04/09 06:49:56;;;;;;;2.80;1.10;;;6.30;99.90;;;;;;5033165;28;20214;-91
2022/04/09 06:52:30;;;;;;;2.80;1.43;;;6.30;99.90;;;;;;5031721;28;20218;-92
2022/04/09 06:55:01;;;;;;;4.10;1.20;;;6.30;99.90;;;;;;5033111;28;20236;-92
2022/04/09 06:57:35;;;;;;;3.63;1.40;;;6.40;99.90;;;;;;5031139;28;20190;-92
2022/04/09 07:00:11;;;;;;;3.33;1.00;;;6.50;99.90;;;;;;5031161;28;20216;-91
2022/04/09 07:02:42;;;;;;;3.23;0.93;;;6.50;99.90;;;;;;5026151;28;20251;-91
2022/04/09 07:05:14;;;;;;;5.03;1.30;;;6.50;99.90;;;;;;5025134;28;20232;-92
2022/04/09 07:07:51;;;;;;;6.27;1.23;;;6.50;99.90;;;;;;5005036;28;20233;-92
2022/04/09 07:10:22;;;;;;;2.30;1.10;;;6.60;99.90;;;;;;5021843;28;20233;-92
2022/04/09 07:12:57;;;;;;;4.57;0.90;;;6.60;99.90;;;;;;5027940;28;20196;-92
2022/04/09 07:15:32;;;;;;;4.23;1.00;;;6.60;99.90;;;;;;5031661;28;20212;-92
2022/04/09 07:18:06;;;;;;;5.03;1.10;;;6.50;99.90;;;;;;5034171;28;20193;-92
2022/04/09 07:20:40;;;;;;;1.73;1.00;;;6.50;99.90;;;;;;5034587;28;20237;-91
2022/04/09 07:23:15;;;;;;;4.20;1.20;;;6.50;99.90;;;;;;5033547;28;20281;-92
2022/04/09 07:28:53;;;;;;;4.90;1.20;;;6.10;99.90;;;;;;5031718;28;20224;-91
2022/04/09 07:31:37;;;;;;;3.47;1.10;;;6.00;99.90;;;;;;5032137;28;20202;-92
2022/04/09 07:34:10;;;;;;;2.70;1.13;;;5.90;99.90;;;;;;5028056;28;20755;-91
2022/04/09 07:36:43;;;;;;;7.30;1.30;;;5.90;99.90;;;;;;5031540;28;20229;-91
2022/04/09 07:39:25;;;;;;;6.53;1.70;;;5.90;99.90;;;;;;5015502;28;20221;-91
2022/04/09 07:42:01;;;;;;;6.20;1.70;;;5.80;99.90;;;;;;5028213;28;20205;-91
2022/04/09 07:44:32;;;;;;;5.97;1.97;;;5.80;99.90;;;;;;5029155;28;20213;-92
2022/04/09 07:47:06;;;;;;;5.53;1.77;;;5.80;99.90;;;;;;5034982;28;20328;-92
2022/04/09 07:52:27;;;;;;;4.83;1.57;;;5.70;99.90;;;;;;5039463;28;20197;-92
2022/04/09 07:55:01;;;;;;;4.67;1.60;;;5.70;99.90;;;;;;5039348;28;20200;-91
2022/04/09 07:57:36;;;;;;;5.03;1.60;;;5.70;99.90;;;;;;5038299;28;20205;-91
2022/04/09 08:00:11;;;;;;;5.97;2.10;;;5.80;99.90;;;;;;5021544;28;20209;-89
2022/04/09 08:02:44;;;;;;;4.57;1.50;;;5.80;99.90;;;;;;5021075;28;20228;-91
2022/04/09 08:05:27;;;;;;;9.23;1.63;;;5.70;99.90;;;;;;5034123;28;20205;-91
2022/04/09 08:08:01;;;;;;;6.33;1.47;;;5.70;99.90;;;;;;5036889;28;20256;-91
2022/04/09 08:10:41;;;;;;;5.13;1.23;;;5.70;99.90;;;;;;5034281;28;20684;-91
2022/04/09 08:13:15;;;;;;;6.43;1.17;;;5.70;99.90;;;;;;5038831;28;20269;-91
2022/04/09 08:15:46;;;;;;;7.90;1.93;;;5.70;99.90;;;;;;5033638;28;20218;-92
2022/04/09 08:18:18;;;;;;;4.33;1.27;;;5.70;99.90;;;;;;5031723;28;20272;-91
2022/04/09 08:21:05;;;;;;;5.50;1.63;;;5.70;99.90;;;;;;5033853;28;20240;-90
2022/04/09 08:23:37;;;;;;;4.53;1.17;;;5.70;99.90;;;;;;5016642;28;20210;-91
2022/04/09 08:26:10;;;;;;;7.03;1.53;;;5.60;99.90;;;;;;5028469;28;20229;-92
2022/04/09 08:28:41;;;;;;;5.97;1.33;;;5.60;99.90;;;;;;5005089;28;20285;-92
2022/04/09 08:31:12;;;;;;;5.10;1.33;;;5.60;99.90;;;;;;5021552;28;20210;-92
2022/04/09 08:33:45;;;;;;;9.43;1.40;;;5.50;99.90;;;;;;5026062;28;20206;-91
2022/04/09 08:36:19;;;;;;;10.87;1.80;;;5.50;99.90;;;;;;5032178;28;20231;-92
2022/04/09 08:38:55;;;;;;;6.43;1.50;;;5.50;99.90;;;;;;5014040;28;20256;-91
2022/04/09 08:44:17;;;;;;;7.17;1.57;;;5.40;99.90;;;;;;4995597;28;20206;-92
2022/04/09 08:47:03;;;;;;;4.67;1.60;;;5.30;99.90;;;;;;5011054;28;20293;-92
2022/04/09 08:49:42;;;;;;;5.83;1.33;;;5.30;99.90;;;;;;5012294;28;20675;-94
2022/04/09 08:55:03;;;;;;;5.10;1.10;;;5.30;99.90;;;;;;5006690;28;20210;-92
2022/04/09 08:57:38;;;;;;;5.20;1.37;;;5.20;99.90;;;;;;5011400;28;20295;-92
2022/04/09 09:00:17;;;;;;;6.57;2.00;;;5.20;99.90;;;;;;5011936;28;20237;-92
2022/04/09 09:02:53;;;;;;;5.40;1.47;;;5.20;99.90;;;;;;5013582;28;20205;-91
2022/04/09 09:05:37;;;;;;;5.40;1.90;;;5.10;99.90;;;;;;5012516;28;20261;-92
2022/04/09 09:08:11;;;;;;;7.73;1.50;;;5.20;99.90;;;;;;4993446;28;20293;-93
2022/04/09 09:11:01;;;;;;;9.77;1.80;;;5.10;99.90;;;;;;4996360;28;20202;-92
2022/04/09 09:13:49;;;;;;;6.70;1.63;;;5.10;99.90;;;;;;5009150;28;20210;-93
2022/04/09 09:16:27;;;;;;;4.37;1.10;;;5.10;99.90;;;;;;5013540;28;20698;-92
2022/04/09 09:19:01;;;;;;;6.97;1.50;;;5.10;99.90;;;;;;5018023;28;20668;-91
2022/04/09 09:21:34;;;;;;;3.80;1.10;;;5.10;99.90;;;;;;5027284;28;20213;-92
2022/04/09 09:24:24;;;;;;;4.07;1.37;;;5.00;99.90;;;;;;5030524;28;20213;-90
2022/04/09 09:27:04;;;;;;;7.90;1.30;;;5.00;99.90;;;;;;5024862;28;20243;-92
2022/04/09 09:30:04;;;;;;;5.37;1.10;;;5.00;99.90;;;;;;5010329;28;20213;-91
2022/04/09 09:38:40;;;;;;;4.07;1.20;;;4.80;99.90;;;;;;5023845;28;20850;-92
2022/04/09 09:41:25;;;;;;;4.33;1.10;;;4.80;99.90;;;;;;5019034;28;20701;-91
2022/04/09 09:44:07;;;;;;;5.10;1.30;;;4.70;99.90;;;;;;5019169;28;20232;-91
2022/04/09 09:46:45;;;;;;;4.40;1.20;;;4.70;99.90;;;;;;5019087;28;20213;-90
2022/04/09 09:49:16;;;;;;;9.40;1.33;;;4.60;99.90;;;;;;5018341;28;20209;-91
2022/04/09 09:52:05;;;;;;;5.63;1.37;;;4.60;99.90;;;;;;5018856;28;20233;-90
2022/04/09 09:54:54;;;;;;;3.40;1.43;;;4.50;99.90;;;;;;5020215;28;20216;-90
2022/04/09 09:57:27;;;;;;;7.43;1.30;;;4.50;99.90;;;;;;5019910;28;20218;-91
2022/04/09 10:00:01;;;;;;;7.93;1.10;;;4.50;99.90;;;;;;5027098;28;20210;-90
2022/04/09 10:02:37;;;;;;;4.87;1.50;;;4.40;99.90;;;;;;5031029;28;20201;-91
2022/04/09 10:07:45;;;;;;;5.20;1.17;;;4.40;99.90;;;;;;5186782;23;20493;-91
2022/04/09 10:10:17;;;;;;;6.70;1.33;;;4.30;99.90;;;;;;5001995;28;20216;-93
2022/04/09 10:15:50;;;;;;;6.87;1.90;;;4.20;99.90;;;;;;5040135;28;20240;-93
2022/04/09 10:18:26;;;;;;;3.07;1.30;;;4.20;99.90;;;;;;5037358;28;20240;-93
2022/04/09 10:21:00;;;;;;;7.77;1.80;;;4.20;99.90;;;;;;5038755;28;20213;-94
2022/04/09 10:23:34;;;;;;;3.47;1.37;;;4.20;99.90;;;;;;5038363;28;20209;-93
2022/04/09 10:26:06;;;;;;;3.43;1.33;;;4.20;99.90;;;;;;5020983;28;20224;-94
2022/04/09 10:28:40;;;;;;;7.33;1.37;;;4.20;99.90;;;;;;5017916;28;20279;-92
2022/04/09 10:31:37;;;;;;;2.57;1.10;;;4.20;99.90;;;;;;5002955;28;20216;-93
2022/04/09 10:34:16;;;;;;;9.30;1.73;;;4.20;99.90;;;;;;5018563;28;20240;-93
2022/04/09 10:37:03;;;;;;;5.67;1.20;;;4.20;99.90;;;;;;5003470;28;20272;-90
2022/04/09 10:39:47;;;;;;;6.87;1.40;;;4.20;99.90;;;;;;5017877;28;20221;-92
2022/04/09 10:42:58;;;;;;;4.77;1.10;;;4.20;99.90;;;;;;5001685;28;20568;-92
2022/04/09 10:45:30;;;;;;;8.90;1.70;;;4.20;99.90;;;;;;5019026;28;20259;-92
2022/04/09 10:48:11;;;;;;;6.70;1.90;;;4.20;99.90;;;;;;5022586;28;20237;-92
2022/04/09 10:51:04;;;;;;;6.43;2.17;;;4.20;99.90;;;;;;5023327;28;20259;-92
2022/04/09 10:53:37;;;;;;;6.53;1.20;;;4.20;99.90;;;;;;5028362;28;20213;-91
2022/04/09 10:56:14;;;;;;;6.10;1.40;;;4.20;99.90;;;;;;5022449;28;20640;-91
2022/04/09 10:59:08;;;;;;;6.23;1.30;;;4.30;99.90;;;;;;5021481;28;20634;-92
2022/04/09 11:01:53;;;;;;;4.23;1.40;;;4.40;99.90;;;;;;5023202;28;20213;-91
2022/04/09 11:04:45;;;;;;;7.33;1.30;;;4.40;99.90;;;;;;5022063;28;20253;-91
2022/04/09 11:07:22;;;;;;;4.60;1.97;;;4.40;99.90;;;;;;5020096;28;20247;-91
2022/04/09 11:09:58;;;;;;;10.47;1.60;;;4.50;99.90;;;;;;5022630;28;20237;-91
2022/04/09 11:12:32;;;;;;;3.03;1.17;;;4.50;99.90;;;;;;5021156;28;20221;-90
2022/04/09 11:15:06;;;;;;;10.10;1.40;;;4.50;99.90;;;;;;5021188;28;20255;-90
2022/04/09 11:17:39;;;;;;;7.97;2.00;;;4.40;99.90;;;;;;5020195;28;20248;-91
2022/04/09 11:20:14;;;;;;;3.27;1.30;;;4.40;99.90;;;;;;5020838;28;20737;-91
2022/04/09 11:22:50;;;;;;;6.57;1.40;;;4.40;99.90;;;;;;5021009;28;20221;-91
2022/04/09 11:25:24;;;;;;;6.30;1.77;;;4.40;99.90;;;;;;5020556;28;20224;-91
2022/04/09 11:28:07;;;;;;;9.93;1.47;;;4.30;99.90;;;;;;5019635;28;20263;-94
2022/04/09 11:30:38;;;;;;;7.63;1.57;;;4.20;99.90;;;;;;5022223;28;20271;-91
2022/04/09 11:33:18;;;;;;;4.70;1.53;;;4.20;99.90;;;;;;5025803;28;20217;-92
2022/04/09 11:35:50;;;;;;;6.97;1.60;;;4.10;99.90;;;;;;5010623;28;20240;-92
2022/04/09 11:38:25;;;;;;;8.30;1.60;;;4.10;99.90;;;;;;5026700;28;20251;-92
2022/04/09 11:40:58;;;;;;;7.23;1.57;;;4.00;99.90;;;;;;5039011;28;20204;-90
2022/04/09 11:43:28;;;;;;;4.83;1.17;;;4.00;99.90;;;;;;5038117;28;20202;-90
2022/04/09 11:46:05;;;;;;;4.77;1.30;;;4.00;99.90;;;;;;5033597;28;20230;-91
2022/04/09 11:48:37;;;;;;;6.80;1.73;;;4.00;99.90;;;;;;5004630;28;20308;-91
2022/04/09 11:51:18;;;;;;;8.10;1.27;;;4.00;99.90;;;;;;5021043;28;20248;-90
2022/04/09 11:53:52;;;;;;;3.13;1.40;;;3.90;99.90;;;;;;4990195;28;20241;-92
2022/04/09 11:56:23;;;;;;;4.37;1.13;;;3.90;99.90;;;;;;5020964;28;20277;-91
2022/04/09 11:58:56;;;;;;;6.93;2.03;;;3.90;99.90;;;;;;5005506;28;20214;-90
2022/04/09 12:01:27;;;;;;;8.13;1.70;;;3.80;99.90;;;;;;5020187;28;20240;-91
2022/04/09 12:03:59;;;;;;;7.73;1.80;;;3.80;99.90;;;;;;5005121;28;20213;-92
2022/04/09 12:06:31;;;;;;;9.10;1.60;;;3.80;99.90;;;;;;5023650;28;20221;-90
2022/04/09 12:09:05;;;;;;;5.80;1.63;;;3.80;99.90;;;;;;5024802;28;20245;-90
2022/04/09 12:11:43;;;;;;;9.73;1.70;;;3.70;99.90;;;;;;5012256;28;20240;-90
2022/04/09 12:14:15;;;;;;;4.30;1.30;;;3.70;99.90;;;;;;5024477;28;20224;-90
2022/04/09 12:16:47;;;;;;;9.33;1.50;;;3.70;99.90;;;;;;5024870;28;20218;-92
2022/04/09 12:19:18;;;;;;;6.97;1.53;;;3.70;99.90;;;;;;5021257;28;20278;-89
2022/04/09 12:21:49;;;;;;;8.77;1.60;;;3.70;99.90;;;;;;5032346;28;20208;-91
2022/04/09 12:24:23;;;;;;;4.93;1.50;;;3.70;99.90;;;;;;5038007;28;20229;-90
2022/04/09 12:26:58;;;;;;;7.47;1.57;;;3.70;99.90;;;;;;5034071;28;20220;-91
2022/04/09 12:29:31;;;;;;;10.90;1.70;;;3.70;99.90;;;;;;5030686;28;20233;-90
2022/04/09 12:32:24;;;;;;;6.67;1.73;;;3.70;99.90;;;;;;5030572;28;20285;-90
2022/04/09 12:34:59;;;;;;;7.77;1.50;;;3.60;99.90;;;;;;5022041;28;20219;-90
2022/04/09 12:37:31;;;;;;;6.23;1.37;;;3.60;99.90;;;;;;5020473;28;20244;-91
2022/04/09 12:40:17;;;;;;;7.07;1.60;;;3.70;99.90;;;;;;5010945;28;20554;-92
2022/04/09 12:42:48;;;;;;;5.27;1.50;;;3.70;99.90;;;;;;5022303;28;20209;-90
2022/04/09 12:45:20;;;;;;;7.33;1.87;;;3.60;99.90;;;;;;5020292;28;20244;-89
2022/04/09 12:47:57;;;;;;;4.77;1.90;;;3.70;99.90;;;;;;5027087;28;20221;-91
2022/04/09 12:50:29;;;;;;;6.37;1.50;;;3.60;99.90;;;;;;5028320;28;20305;-91
2022/04/09 12:53:02;;;;;;;8.57;1.73;;;3.60;99.90;;;;;;5028898;28;20273;-91
2022/04/09 12:55:39;;;;;;;11.37;1.83;;;3.50;99.90;;;;;;5029223;28;20209;-92
2022/04/09 12:58:11;;;;;;;8.17;1.70;;;3.50;99.90;;;;;;5023632;28;20225;-91
2022/04/09 13:00:42;;;;;;;4.40;1.77;;;3.50;99.90;;;;;;5019612;28;20237;-91
2022/04/09 13:03:14;;;;;;;5.13;1.40;;;3.40;99.90;;;;;;5019672;28;20301;-90
2022/04/09 13:05:49;;;;;;;9.97;1.73;;;3.40;99.90;;;;;;5019205;28;20275;-91
2022/04/09 13:08:20;;;;;;;7.17;1.30;;;3.40;99.90;;;;;;5017684;28;20217;-91
2022/04/09 13:10:53;;;;;;;6.50;2.10;;;3.30;99.90;;;;;;5018808;28;20316;-91
2022/04/09 13:13:26;;;;;;;7.40;1.40;;;3.30;99.90;;;;;;5018775;28;20229;-90
2022/04/09 13:15:58;;;;;;;7.13;1.93;;;3.30;99.90;;;;;;5018208;28;20225;-90
2022/04/09 13:18:29;;;;;;;6.47;1.50;;;3.20;99.90;;;;;;5027958;28;20236;-90
2022/04/09 13:21:03;;;;;;;7.03;1.43;;;3.20;99.90;;;;;;5029241;28;20248;-90
2022/04/09 13:23:39;;;;;;;6.13;1.50;;;3.20;99.90;;;;;;5023510;28;20213;-91
2022/04/09 13:26:14;;;;;;;12.30;2.07;;;3.20;99.90;;;;;;5004429;28;20265;-93
2022/04/09 13:28:47;;;;;;;10.03;1.77;;;3.10;99.90;;;;;;5036309;28;20196;-90
2022/04/09 13:31:19;;;;;;;6.17;2.30;;;3.10;99.90;;;;;;5036869;28;20279;-91
2022/04/09 13:33:53;;;;;;;9.00;2.03;;;3.00;99.90;;;;;;5027937;28;20216;-90
2022/04/09 13:36:26;;;;;;;9.60;1.80;;;3.00;99.90;;;;;;5021196;28;20205;-90
2022/04/09 13:38:57;;;;;;;7.70;1.53;;;3.00;99.90;;;;;;5019766;28;20243;-90
2022/04/09 13:41:52;;;;;;;8.07;1.43;;;2.90;99.90;;;;;;5019411;28;20296;-91
2022/04/09 13:44:24;;;;;;;3.53;1.50;;;2.90;99.90;;;;;;5021419;28;20217;-91
2022/04/09 13:46:55;;;;;;;9.53;2.20;;;2.90;99.90;;;;;;5018440;28;20213;-91
2022/04/09 13:49:26;;;;;;;5.17;1.40;;;3.00;99.90;;;;;;5019083;28;20249;-91
2022/04/09 13:51:59;;;;;;;6.73;1.77;;;3.00;99.90;;;;;;5020290;28;20221;-91
2022/04/09 13:54:31;;;;;;;10.83;1.80;;;3.00;99.90;;;;;;5017941;28;20281;-91
2022/04/09 13:57:05;;;;;;;10.77;2.00;;;3.00;99.90;;;;;;5019943;28;20213;-91
2022/04/09 13:59:37;;;;;;;5.80;1.43;;;3.00;99.90;;;;;;5018722;28;20232;-90
2022/04/09 14:02:09;;;;;;;10.27;1.97;;;3.00;99.90;;;;;;5003034;28;20296;-92
2022/04/09 14:04:41;;;;;;;6.20;1.50;;;3.00;99.90;;;;;;5019744;28;20550;-91
2022/04/09 14:07:13;;;;;;;7.37;1.80;;;3.10;99.90;;;;;;5020555;28;20277;-92
2022/04/09 14:09:44;;;;;;;10.03;1.93;;;3.10;99.90;;;;;;5017956;28;20672;-90
2022/04/09 14:12:19;;;;;;;9.80;1.70;;;3.10;99.90;;;;;;5020119;28;20210;-91
2022/04/09 14:14:52;;;;;;;8.50;2.00;;;3.10;99.90;;;;;;5020005;28;20231;-90
2022/04/09 14:17:23;;;;;;;7.70;1.50;;;3.20;99.90;;;;;;5021754;28;20217;-92
2022/04/09 14:19:55;;;;;;;7.13;1.73;;;3.20;99.90;;;;;;5025369;28;20210;-90
2022/04/09 14:22:26;;;;;;;8.50;1.73;;;3.20;99.90;;;;;;5009100;28;20209;-91
2022/04/09 14:24:58;;;;;;;4.87;1.90;;;3.20;99.90;;;;;;5026346;28;20209;-91
2022/04/09 14:27:32;;;;;;;7.67;1.53;;;3.20;99.90;;;;;;5019257;28;20236;-91
2022/04/09 14:30:04;;;;;;;13.30;2.03;;;3.30;99.90;;;;;;5018964;28;20340;-90